createdAt,value
2017-09-23T00:00:01.589Z,15.62
2017-09-23T00:01:54.589Z,15.67
2017-09-23T00:02:54.652Z,15.57
2017-09-23T00:04:47.659Z,15.72
2017-09-23T00:05:47.704Z,15.67
2017-09-23T00:07:40.700Z,15.67
2017-09-23T00:08:40.765Z,15.64
2017-09-23T00:10:33.776Z,15.55
2017-09-23T00:11:33.818Z,15.59
2017-09-23T00:13:26.833Z,15.55
2017-09-23T00:14:26.877Z,15.52
2017-09-23T00:16:19.869Z,15.54
2017-09-23T00:17:19.935Z,15.55
2017-09-23T00:19:12.961Z,15.57
2017-09-23T00:20:13.000Z,15.55
2017-09-23T00:22:05.994Z,15.57
2017-09-23T00:23:06.057Z,15.55
2017-09-23T00:24:59.074Z,15.55
2017-09-23T00:25:59.119Z,15.57
2017-09-23T00:27:52.110Z,15.70
2017-09-23T00:28:52.172Z,15.55
2017-09-23T00:30:45.187Z,15.58
2017-09-23T00:31:45.225Z,15.55
2017-09-23T00:33:38.238Z,15.57
2017-09-23T00:34:38.280Z,15.52
2017-09-23T00:36:31.273Z,15.55
2017-09-23T00:37:31.334Z,15.61
2017-09-23T00:39:24.346Z,15.64
2017-09-23T00:40:24.390Z,15.55
2017-09-23T00:42:17.385Z,15.57
2017-09-23T00:43:17.451Z,15.52
2017-09-23T00:45:10.461Z,15.47
2017-09-23T00:46:10.507Z,15.46
2017-09-23T00:48:03.500Z,15.51
2017-09-23T00:49:03.562Z,15.43
2017-09-23T00:50:56.578Z,15.40
2017-09-23T00:51:56.619Z,15.39
2017-09-23T00:53:49.647Z,15.42
2017-09-23T00:54:49.678Z,15.43
2017-09-23T00:56:42.671Z,15.43
2017-09-23T00:57:42.731Z,15.43
2017-09-23T00:59:35.751Z,15.42
2017-09-23T01:00:35.788Z,15.42
2017-09-23T01:02:28.782Z,15.42
2017-09-23T01:03:28.844Z,15.42
2017-09-23T01:05:21.859Z,15.40
2017-09-23T01:06:21.902Z,15.46
2017-09-23T01:08:14.900Z,15.37
2017-09-23T01:09:14.963Z,15.47
2017-09-23T01:11:07.977Z,15.43
2017-09-23T01:12:08.020Z,15.39
2017-09-23T01:14:01.016Z,15.37
2017-09-23T01:15:01.080Z,15.37
2017-09-23T01:16:54.090Z,15.27
2017-09-23T01:17:54.134Z,15.33
2017-09-23T01:19:47.152Z,15.42
2017-09-23T01:20:47.195Z,15.29
2017-09-23T01:22:40.187Z,15.44
2017-09-23T01:23:40.248Z,15.31
2017-09-23T01:25:33.265Z,15.31
2017-09-23T01:26:33.307Z,15.35
2017-09-23T01:28:26.299Z,15.42
2017-09-23T01:29:26.361Z,15.37
2017-09-23T01:31:19.372Z,15.35
2017-09-23T01:32:19.415Z,15.31
2017-09-23T01:34:12.412Z,15.36
2017-09-23T01:35:12.475Z,15.35
2017-09-23T01:37:05.493Z,15.24
2017-09-23T01:38:05.538Z,15.24
2017-09-23T01:39:58.551Z,15.24
2017-09-23T01:40:58.594Z,15.36
2017-09-23T01:42:51.606Z,15.36
2017-09-23T01:43:51.653Z,15.35
2017-09-23T01:45:44.664Z,15.27
2017-09-23T01:46:44.708Z,15.37
2017-09-23T01:48:37.701Z,15.36
2017-09-23T01:49:37.765Z,15.35
2017-09-23T01:51:30.780Z,15.25
2017-09-23T01:52:30.823Z,15.42
2017-09-23T01:54:23.819Z,15.33
2017-09-23T01:55:23.883Z,15.31
2017-09-23T01:57:16.896Z,15.39
2017-09-23T01:58:16.937Z,15.27
2017-09-23T02:00:09.947Z,15.33
2017-09-23T02:01:09.990Z,15.24
2017-09-23T02:03:02.987Z,15.44
2017-09-23T02:04:03.057Z,15.33
2017-09-23T02:05:56.067Z,15.39
2017-09-23T02:06:56.109Z,15.44
2017-09-23T02:08:49.104Z,15.33
2017-09-23T02:09:49.167Z,15.36
2017-09-23T02:11:42.176Z,15.39
2017-09-23T02:12:42.219Z,15.36
2017-09-23T02:14:35.213Z,15.35
2017-09-23T02:15:35.285Z,15.39
2017-09-23T02:17:28.301Z,15.39
2017-09-23T02:18:28.348Z,15.22
2017-09-23T02:20:21.351Z,15.29
2017-09-23T02:21:21.399Z,15.28
2017-09-23T02:23:14.390Z,15.28
2017-09-23T02:24:14.457Z,15.28
2017-09-23T02:26:07.464Z,15.22
2017-09-23T02:27:07.508Z,15.28
2017-09-23T02:29:00.500Z,15.29
2017-09-23T02:30:00.563Z,15.22
2017-09-23T02:31:53.579Z,15.27
2017-09-23T02:32:53.623Z,15.27
2017-09-23T02:34:46.615Z,15.27
2017-09-23T02:35:46.675Z,15.27
2017-09-23T02:37:39.685Z,15.22
2017-09-23T02:38:39.728Z,15.27
2017-09-23T02:40:32.745Z,15.27
2017-09-23T02:41:32.784Z,15.25
2017-09-23T02:43:25.772Z,15.21
2017-09-23T02:44:25.836Z,15.28
2017-09-23T02:46:18.845Z,15.33
2017-09-23T02:47:18.886Z,15.22
2017-09-23T02:49:11.879Z,15.39
2017-09-23T02:50:11.940Z,15.25
2017-09-23T02:52:04.951Z,15.33
2017-09-23T02:53:04.992Z,15.25
2017-09-23T02:54:57.986Z,15.31
2017-09-23T02:55:58.049Z,15.28
2017-09-23T02:57:51.065Z,15.27
2017-09-23T02:58:51.103Z,15.28
2017-09-23T03:00:44.114Z,15.28
2017-09-23T03:01:44.157Z,15.29
2017-09-23T03:03:37.148Z,15.27
2017-09-23T03:04:37.209Z,15.36
2017-09-23T03:06:30.225Z,15.24
2017-09-23T03:07:30.268Z,15.36
2017-09-23T03:09:23.260Z,15.29
2017-09-23T03:10:23.322Z,15.36
2017-09-23T03:12:16.335Z,15.39
2017-09-23T03:13:16.376Z,15.42
2017-09-23T03:15:09.375Z,15.29
2017-09-23T03:16:09.431Z,15.36
2017-09-23T03:18:02.441Z,15.43
2017-09-23T03:19:02.483Z,15.46
2017-09-23T03:20:55.493Z,15.40
2017-09-23T03:21:55.536Z,15.44
2017-09-23T03:23:48.531Z,15.39
2017-09-23T03:24:48.591Z,15.36
2017-09-23T03:26:41.600Z,15.39
2017-09-23T03:27:41.641Z,15.35
2017-09-23T03:29:34.632Z,15.37
2017-09-23T03:30:34.696Z,15.36
2017-09-23T03:32:28.218Z,15.46
2017-09-23T03:33:28.256Z,15.39
2017-09-23T03:35:21.248Z,15.44
2017-09-23T03:36:21.311Z,15.37
2017-09-23T03:38:14.321Z,15.42
2017-09-23T03:39:14.363Z,15.36
2017-09-23T03:41:07.373Z,15.40
2017-09-23T03:42:07.415Z,15.49
2017-09-23T03:44:00.405Z,15.29
2017-09-23T03:45:00.469Z,15.36
2017-09-23T03:46:53.476Z,15.46
2017-09-23T03:47:53.521Z,15.43
2017-09-23T03:49:46.511Z,15.35
2017-09-23T03:50:46.571Z,15.46
2017-09-23T03:52:39.590Z,15.35
2017-09-23T03:53:39.635Z,15.31
2017-09-23T03:55:32.626Z,15.35
2017-09-23T03:56:32.690Z,15.36
2017-09-23T03:58:25.700Z,15.43
2017-09-23T03:59:25.742Z,15.39
2017-09-23T04:01:18.760Z,15.37
2017-09-23T04:02:18.800Z,15.37
2017-09-23T04:04:11.793Z,15.39
2017-09-23T04:05:11.856Z,15.33
2017-09-23T04:07:04.867Z,15.39
2017-09-23T04:08:04.910Z,15.37
2017-09-23T04:09:57.901Z,15.42
2017-09-23T04:10:57.962Z,15.36
2017-09-23T04:12:50.974Z,15.18
2017-09-23T04:13:51.018Z,15.28
2017-09-23T04:15:44.015Z,15.24
2017-09-23T04:16:44.072Z,15.14
2017-09-23T04:18:37.088Z,15.09
2017-09-23T04:19:37.131Z,15.15
2017-09-23T04:21:30.144Z,15.04
2017-09-23T04:22:30.190Z,15.06
2017-09-23T04:24:23.180Z,15.03
2017-09-23T04:25:23.243Z,15.06
2017-09-23T04:27:16.252Z,14.91
2017-09-23T04:28:16.296Z,15.00
2017-09-23T04:30:09.285Z,14.92
2017-09-23T04:31:09.348Z,14.89
2017-09-23T04:33:02.869Z,14.96
2017-09-23T04:34:02.910Z,14.94
2017-09-23T04:35:55.899Z,14.85
2017-09-23T04:36:55.962Z,14.78
2017-09-23T04:38:48.972Z,14.84
2017-09-23T04:39:49.018Z,14.85
2017-09-23T04:41:42.026Z,14.85
2017-09-23T04:42:42.233Z,14.82
2017-09-23T04:44:35.059Z,14.73
2017-09-23T04:45:35.121Z,14.72
2017-09-23T04:47:28.132Z,14.73
2017-09-23T04:48:28.175Z,14.72
2017-09-23T04:50:21.166Z,14.78
2017-09-23T04:51:21.229Z,14.77
2017-09-23T04:53:14.237Z,14.78
2017-09-23T04:54:14.281Z,14.77
2017-09-23T04:56:07.271Z,14.81
2017-09-23T04:57:07.356Z,14.70
2017-09-23T04:59:00.341Z,14.79
2017-09-23T05:00:00.383Z,14.78
2017-09-23T05:01:53.391Z,14.81
2017-09-23T05:02:53.433Z,14.84
2017-09-23T05:04:46.425Z,14.84
2017-09-23T05:05:46.484Z,14.84
2017-09-23T05:07:39.494Z,14.81
2017-09-23T05:08:39.536Z,14.77
2017-09-23T05:10:32.527Z,14.84
2017-09-23T05:11:32.586Z,14.68
2017-09-23T05:13:25.603Z,14.72
2017-09-23T05:14:25.644Z,14.73
2017-09-23T05:16:18.651Z,14.77
2017-09-23T05:17:18.705Z,14.81
2017-09-23T05:19:11.714Z,14.70
2017-09-23T05:20:11.755Z,14.68
2017-09-23T05:22:04.767Z,14.78
2017-09-23T05:23:04.808Z,14.79
2017-09-23T05:24:57.799Z,14.69
2017-09-23T05:25:57.859Z,14.70
2017-09-23T05:27:50.872Z,14.78
2017-09-23T05:28:50.913Z,14.70
2017-09-23T05:30:43.906Z,14.73
2017-09-23T05:31:43.968Z,14.77
2017-09-23T05:33:36.990Z,14.81
2017-09-23T05:34:37.020Z,14.81
2017-09-23T05:36:30.011Z,14.88
2017-09-23T05:37:30.074Z,14.86
2017-09-23T05:39:23.088Z,14.86
2017-09-23T05:40:23.132Z,14.86
2017-09-23T05:42:16.138Z,14.85
2017-09-23T05:43:16.180Z,14.85
2017-09-23T05:45:09.175Z,14.73
2017-09-23T05:46:09.239Z,14.72
2017-09-23T05:48:02.252Z,14.73
2017-09-23T05:49:02.292Z,14.78
2017-09-23T05:50:55.284Z,14.68
2017-09-23T05:51:55.354Z,14.59
2017-09-23T05:53:48.355Z,14.65
2017-09-23T05:54:48.397Z,14.65
2017-09-23T05:56:41.387Z,14.66
2017-09-23T05:57:41.449Z,14.60
2017-09-23T05:59:34.460Z,14.70
2017-09-23T06:00:34.503Z,14.59
2017-09-23T06:02:27.548Z,14.60
2017-09-23T06:03:27.550Z,14.54
2017-09-23T06:05:20.542Z,14.54
2017-09-23T06:06:20.601Z,14.60
2017-09-23T06:08:13.609Z,14.54
2017-09-23T06:09:13.653Z,14.59
2017-09-23T06:11:06.642Z,14.66
2017-09-23T06:12:06.872Z,14.62
2017-09-23T06:14:00.224Z,14.60
2017-09-23T06:15:00.264Z,14.70
2017-09-23T06:16:53.252Z,14.78
2017-09-23T06:17:53.314Z,14.77
2017-09-23T06:19:46.330Z,14.81
2017-09-23T06:20:46.371Z,14.72
2017-09-23T06:22:39.388Z,14.94
2017-09-23T06:23:39.432Z,14.78
2017-09-23T06:25:32.422Z,14.81
2017-09-23T06:26:32.483Z,14.92
2017-09-23T06:28:25.498Z,14.86
2017-09-23T06:29:25.540Z,14.92
2017-09-23T06:31:18.530Z,15.02
2017-09-23T06:32:18.594Z,14.96
2017-09-23T06:34:11.603Z,14.96
2017-09-23T06:35:11.643Z,15.03
2017-09-23T06:37:04.638Z,15.02
2017-09-23T06:38:04.699Z,15.07
2017-09-23T06:39:57.715Z,15.17
2017-09-23T06:40:57.762Z,15.36
2017-09-23T06:42:50.780Z,15.58
2017-09-23T06:43:50.809Z,15.70
2017-09-23T06:45:43.801Z,16.10
2017-09-23T06:46:43.863Z,16.20
2017-09-23T06:48:36.870Z,16.13
2017-09-23T06:49:36.919Z,16.04
2017-09-23T06:51:29.907Z,15.82
2017-09-23T06:52:29.971Z,15.67
2017-09-23T06:54:22.985Z,15.46
2017-09-23T06:55:23.028Z,15.42
2017-09-23T06:57:16.022Z,15.18
2017-09-23T06:58:16.084Z,15.07
2017-09-23T07:00:09.108Z,15.15
2017-09-23T07:01:09.146Z,15.09
2017-09-23T07:03:02.166Z,15.18
2017-09-23T07:04:02.202Z,15.14
2017-09-23T07:05:55.211Z,15.57
2017-09-23T07:06:55.260Z,15.70
2017-09-23T07:08:48.270Z,15.79
2017-09-23T07:09:48.311Z,15.95
2017-09-23T07:11:41.302Z,16.00
2017-09-23T07:12:41.366Z,16.15
2017-09-23T07:14:34.380Z,16.16
2017-09-23T07:15:34.420Z,16.16
2017-09-23T07:17:27.414Z,16.75
2017-09-23T07:18:27.476Z,17.34
2017-09-23T07:20:20.488Z,19.45
2017-09-23T07:21:20.534Z,20.21
2017-09-23T07:23:13.547Z,21.43
2017-09-23T07:24:13.592Z,21.85
2017-09-23T07:26:06.591Z,22.65
2017-09-23T07:27:06.650Z,22.84
2017-09-23T07:28:59.664Z,23.06
2017-09-23T07:29:59.708Z,23.00
2017-09-23T07:31:52.709Z,23.44
2017-09-23T07:32:52.773Z,23.56
2017-09-23T07:34:45.793Z,23.78
2017-09-23T07:35:45.837Z,23.77
2017-09-23T07:37:38.839Z,23.95
2017-09-23T07:38:38.908Z,23.80
2017-09-23T07:40:31.930Z,23.63
2017-09-23T07:41:31.982Z,23.68
2017-09-23T07:43:24.999Z,23.65
2017-09-23T07:44:25.046Z,23.71
2017-09-23T07:46:18.048Z,23.58
2017-09-23T07:47:18.116Z,23.61
2017-09-23T07:49:11.145Z,24.13
2017-09-23T07:50:11.185Z,24.30
2017-09-23T07:52:04.197Z,24.40
2017-09-23T07:53:04.254Z,24.47
2017-09-23T07:54:57.277Z,24.95
2017-09-23T07:55:57.342Z,25.06
2017-09-23T07:57:50.339Z,25.53
2017-09-23T07:58:50.410Z,25.68
2017-09-23T08:00:43.435Z,26.19
2017-09-23T08:01:43.486Z,26.47
2017-09-23T08:03:37.017Z,26.55
2017-09-23T08:04:37.064Z,26.75
2017-09-23T08:06:30.068Z,26.71
2017-09-23T08:07:30.136Z,26.43
2017-09-23T08:09:23.166Z,26.13
2017-09-23T08:10:23.213Z,26.10
2017-09-23T08:12:16.216Z,26.48
2017-09-23T08:13:16.286Z,26.56
2017-09-23T08:15:09.315Z,25.38
2017-09-23T08:16:09.365Z,24.68
2017-09-23T08:18:02.370Z,23.74
2017-09-23T08:19:02.437Z,22.75
2017-09-23T08:20:55.462Z,21.58
2017-09-23T08:21:55.510Z,21.17
2017-09-23T08:23:48.534Z,20.43
2017-09-23T08:24:48.584Z,20.03
2017-09-23T08:26:41.585Z,19.63
2017-09-23T08:27:41.656Z,19.54
2017-09-23T08:29:34.678Z,20.06
2017-09-23T08:30:34.726Z,20.07
2017-09-23T08:32:27.729Z,20.04
2017-09-23T08:33:27.803Z,20.03
2017-09-23T08:35:20.821Z,19.96
2017-09-23T08:36:20.867Z,19.84
2017-09-23T08:38:14.378Z,20.10
2017-09-23T08:39:14.444Z,19.84
2017-09-23T08:41:07.470Z,19.66
2017-09-23T08:42:07.518Z,19.66
2017-09-23T08:44:00.539Z,19.64
2017-09-23T08:45:00.591Z,19.54
2017-09-23T08:46:53.586Z,19.59
2017-09-23T08:47:53.653Z,19.76
2017-09-23T08:49:46.675Z,19.59
2017-09-23T08:50:46.720Z,19.54
2017-09-23T08:52:39.720Z,19.29
2017-09-23T08:53:39.786Z,19.24
2017-09-23T08:55:32.805Z,18.98
2017-09-23T08:56:32.852Z,19.07
2017-09-23T08:58:25.850Z,19.12
2017-09-23T08:59:25.917Z,19.19
2017-09-23T09:01:18.937Z,19.44
2017-09-23T09:02:18.983Z,19.59
2017-09-23T09:04:12.003Z,19.76
2017-09-23T09:05:12.048Z,19.76
2017-09-23T09:07:05.047Z,19.11
2017-09-23T09:08:05.113Z,18.92
2017-09-23T09:09:58.133Z,19.14
2017-09-23T09:10:58.182Z,19.21
2017-09-23T09:12:51.178Z,19.33
2017-09-23T09:13:51.244Z,19.37
2017-09-23T09:15:44.266Z,19.36
2017-09-23T09:16:44.310Z,19.40
2017-09-23T09:18:37.311Z,18.73
2017-09-23T09:19:37.380Z,18.84
2017-09-23T09:21:30.394Z,18.68
2017-09-23T09:22:30.441Z,18.75
2017-09-23T09:24:23.460Z,18.83
2017-09-23T09:25:23.505Z,18.74
2017-09-23T09:27:16.503Z,18.84
2017-09-23T09:28:16.571Z,18.77
2017-09-23T09:30:09.589Z,18.86
2017-09-23T09:31:09.646Z,18.93
2017-09-23T09:33:02.629Z,19.09
2017-09-23T09:34:02.697Z,19.07
2017-09-23T09:35:55.723Z,18.96
2017-09-23T09:36:55.766Z,18.98
2017-09-23T09:38:48.768Z,18.83
2017-09-23T09:39:48.830Z,18.80
2017-09-23T09:41:41.850Z,18.66
2017-09-23T09:42:41.896Z,18.43
2017-09-23T09:44:34.918Z,18.53
2017-09-23T09:45:34.959Z,18.37
2017-09-23T09:47:27.966Z,18.38
2017-09-23T09:48:28.031Z,18.35
2017-09-23T09:50:21.046Z,18.13
2017-09-23T09:51:21.091Z,18.18
2017-09-23T09:53:14.088Z,18.26
2017-09-23T09:54:14.155Z,18.33
2017-09-23T09:56:07.170Z,18.34
2017-09-23T09:57:07.485Z,18.50
2017-09-23T09:59:00.212Z,18.73
2017-09-23T10:00:00.279Z,18.74
2017-09-23T10:01:53.295Z,19.00
2017-09-23T10:02:53.341Z,19.08
2017-09-23T10:04:46.363Z,19.24
2017-09-23T10:05:46.405Z,19.39
2017-09-23T10:07:39.402Z,19.51
2017-09-23T10:08:39.469Z,19.55
2017-09-23T10:10:32.485Z,19.39
2017-09-23T10:11:32.531Z,19.64
2017-09-23T10:13:25.529Z,19.08
2017-09-23T10:14:25.595Z,18.93
2017-09-23T10:16:18.614Z,18.83
2017-09-23T10:17:18.659Z,18.77
2017-09-23T10:19:11.658Z,18.90
2017-09-23T10:20:11.725Z,19.02
2017-09-23T10:22:04.748Z,19.30
2017-09-23T10:23:04.795Z,19.24
2017-09-23T10:24:57.813Z,19.26
2017-09-23T10:25:57.860Z,19.26
2017-09-23T10:27:50.861Z,19.27
2017-09-23T10:28:50.923Z,19.27
2017-09-23T10:30:43.954Z,19.29
2017-09-23T10:31:43.997Z,19.24
2017-09-23T10:33:36.992Z,19.19
2017-09-23T10:34:37.062Z,19.22
2017-09-23T10:36:30.083Z,19.39
2017-09-23T10:37:30.126Z,19.47
2017-09-23T10:39:23.123Z,19.52
2017-09-23T10:40:23.188Z,19.47
2017-09-23T10:42:16.207Z,19.41
2017-09-23T10:43:16.251Z,19.39
2017-09-23T10:45:09.274Z,19.55
2017-09-23T10:46:09.321Z,19.74
2017-09-23T10:48:02.313Z,20.00
2017-09-23T10:49:02.380Z,20.06
2017-09-23T10:50:55.403Z,20.25
2017-09-23T10:51:55.442Z,20.37
2017-09-23T10:53:48.439Z,20.51
2017-09-23T10:54:48.506Z,20.32
2017-09-23T10:56:41.541Z,20.04
2017-09-23T10:57:41.572Z,20.06
2017-09-23T10:59:34.572Z,19.86
2017-09-23T11:00:34.640Z,19.79
2017-09-23T11:02:27.659Z,19.54
2017-09-23T11:03:27.706Z,19.47
2017-09-23T11:05:20.724Z,19.39
2017-09-23T11:06:20.783Z,19.21
2017-09-23T11:08:13.779Z,18.89
2017-09-23T11:09:13.838Z,18.90
2017-09-23T11:11:06.861Z,19.08
2017-09-23T11:12:06.906Z,19.18
2017-09-23T11:13:59.924Z,18.90
2017-09-23T11:14:59.995Z,18.89
2017-09-23T11:16:53.008Z,18.80
2017-09-23T11:17:53.054Z,18.71
2017-09-23T11:19:46.051Z,18.78
2017-09-23T11:20:46.116Z,18.77
2017-09-23T11:22:39.133Z,18.88
2017-09-23T11:23:39.180Z,18.86
2017-09-23T11:25:32.197Z,18.98
2017-09-23T11:26:32.244Z,18.86
2017-09-23T11:28:25.246Z,18.80
2017-09-23T11:29:25.307Z,18.80
2017-09-23T11:31:18.324Z,18.80
2017-09-23T11:32:18.376Z,18.81
2017-09-23T11:34:11.366Z,18.83
2017-09-23T11:35:11.434Z,18.88
2017-09-23T11:37:04.454Z,18.95
2017-09-23T11:38:04.503Z,18.92
2017-09-23T11:39:57.498Z,18.99
2017-09-23T11:40:57.562Z,19.02
2017-09-23T11:42:50.589Z,19.18
2017-09-23T11:43:50.636Z,19.27
2017-09-23T11:45:43.659Z,19.27
2017-09-23T11:46:43.702Z,19.34
2017-09-23T11:48:36.698Z,19.36
2017-09-23T11:49:36.763Z,19.33
2017-09-23T11:51:29.781Z,19.39
2017-09-23T11:52:29.826Z,19.41
2017-09-23T11:54:22.831Z,19.40
2017-09-23T11:55:22.889Z,19.44
2017-09-23T11:57:15.908Z,19.47
2017-09-23T11:58:15.950Z,19.52
2017-09-23T12:00:08.946Z,19.52
2017-09-23T12:01:09.015Z,19.64
2017-09-23T12:03:02.032Z,19.67
2017-09-23T12:04:02.081Z,19.73
2017-09-23T12:05:55.092Z,19.94
2017-09-23T12:06:55.138Z,19.94
2017-09-23T12:08:48.137Z,20.04
2017-09-23T12:09:48.203Z,20.14
2017-09-23T12:11:41.229Z,20.09
2017-09-23T12:12:41.278Z,20.00
2017-09-23T12:14:34.277Z,20.09
2017-09-23T12:15:34.342Z,20.04
2017-09-23T12:17:27.365Z,20.04
2017-09-23T12:18:27.414Z,19.96
2017-09-23T12:20:20.432Z,20.00
2017-09-23T12:21:20.479Z,20.09
2017-09-23T12:23:13.480Z,19.99
2017-09-23T12:24:13.546Z,19.96
2017-09-23T12:26:06.571Z,19.95
2017-09-23T12:27:06.618Z,19.94
2017-09-23T12:28:59.615Z,19.92
2017-09-23T12:29:59.679Z,19.99
2017-09-23T12:31:52.712Z,19.94
2017-09-23T12:32:52.770Z,20.00
2017-09-23T12:34:45.758Z,20.07
2017-09-23T12:35:45.825Z,20.11
2017-09-23T12:37:38.845Z,20.40
2017-09-23T12:38:38.894Z,20.43
2017-09-23T12:40:31.915Z,20.62
2017-09-23T12:41:31.955Z,20.62
2017-09-23T12:43:24.956Z,20.52
2017-09-23T12:44:25.020Z,20.56
2017-09-23T12:46:18.045Z,20.67
2017-09-23T12:47:18.091Z,20.47
2017-09-23T12:49:11.091Z,20.52
2017-09-23T12:50:11.158Z,20.56
2017-09-23T12:52:04.178Z,20.48
2017-09-23T12:53:04.222Z,20.50
2017-09-23T12:54:57.226Z,20.56
2017-09-23T12:55:57.297Z,20.51
2017-09-23T12:57:50.314Z,20.39
2017-09-23T12:58:50.367Z,20.41
2017-09-23T13:00:43.381Z,20.28
2017-09-23T13:01:43.432Z,20.18
2017-09-23T13:03:36.432Z,20.06
2017-09-23T13:04:36.499Z,20.00
2017-09-23T13:06:29.520Z,19.85
2017-09-23T13:07:29.569Z,19.82
2017-09-23T13:09:22.569Z,19.59
2017-09-23T13:10:22.636Z,19.56
2017-09-23T13:12:15.655Z,19.41
2017-09-23T13:13:15.699Z,19.37
2017-09-23T13:15:08.710Z,19.24
2017-09-23T13:16:08.774Z,19.12
2017-09-23T13:18:02.295Z,18.99
2017-09-23T13:19:02.344Z,19.08
2017-09-23T13:20:55.363Z,18.83
2017-09-23T13:21:55.403Z,18.92
2017-09-23T13:23:48.400Z,18.90
2017-09-23T13:24:48.466Z,18.92
2017-09-23T13:26:41.520Z,18.93
2017-09-23T13:27:41.532Z,18.95
2017-09-23T13:29:34.532Z,18.96
2017-09-23T13:30:34.598Z,18.98
2017-09-23T13:32:27.617Z,19.02
2017-09-23T13:33:27.661Z,19.14
2017-09-23T13:35:20.658Z,19.12
2017-09-23T13:36:20.723Z,19.00
2017-09-23T13:38:13.741Z,18.96
2017-09-23T13:39:13.785Z,19.00
2017-09-23T13:41:06.799Z,19.08
2017-09-23T13:42:06.845Z,19.07
2017-09-23T13:43:59.839Z,19.07
2017-09-23T13:44:59.905Z,19.14
2017-09-23T13:46:52.924Z,19.18
2017-09-23T13:47:52.968Z,19.18
2017-09-23T13:49:45.969Z,19.24
2017-09-23T13:50:46.035Z,19.27
2017-09-23T13:52:39.058Z,19.33
2017-09-23T13:53:39.100Z,19.31
2017-09-23T13:55:32.097Z,19.37
2017-09-23T13:56:32.164Z,19.51
2017-09-23T13:58:25.177Z,19.55
2017-09-23T13:59:25.222Z,19.67
2017-09-23T14:01:18.243Z,19.70
2017-09-23T14:02:18.282Z,19.73
2017-09-23T14:04:11.276Z,19.95
2017-09-23T14:05:11.342Z,20.06
2017-09-23T14:07:04.359Z,20.36
2017-09-23T14:08:04.404Z,20.55
2017-09-23T14:09:57.406Z,20.28
2017-09-23T14:10:57.472Z,20.16
2017-09-23T14:12:50.488Z,19.99
2017-09-23T14:13:50.532Z,19.95
2017-09-23T14:15:43.528Z,19.91
2017-09-23T14:16:43.596Z,19.85
2017-09-23T14:18:36.639Z,19.82
2017-09-23T14:19:36.687Z,19.77
2017-09-23T14:21:29.704Z,19.86
2017-09-23T14:22:29.748Z,19.95
2017-09-23T14:24:22.742Z,20.14
2017-09-23T14:25:22.808Z,20.39
2017-09-23T14:27:15.826Z,20.80
2017-09-23T14:28:15.872Z,20.69
2017-09-23T14:30:08.872Z,20.92
2017-09-23T14:31:08.936Z,21.00
2017-09-23T14:33:01.952Z,21.00
2017-09-23T14:34:01.999Z,20.97
2017-09-23T14:35:55.000Z,20.77
2017-09-23T14:36:55.061Z,20.67
2017-09-23T14:38:48.083Z,20.56
2017-09-23T14:39:48.130Z,20.56
2017-09-23T14:41:41.168Z,20.41
2017-09-23T14:42:41.221Z,20.32
2017-09-23T14:44:34.199Z,20.19
2017-09-23T14:45:34.265Z,20.00
2017-09-23T14:47:27.284Z,19.89
2017-09-23T14:48:27.341Z,19.76
2017-09-23T14:50:20.330Z,19.59
2017-09-23T14:51:20.395Z,19.56
2017-09-23T14:53:13.415Z,19.40
2017-09-23T14:54:13.468Z,19.47
2017-09-23T14:56:06.467Z,19.39
2017-09-23T14:57:06.533Z,19.37
2017-09-23T14:58:59.573Z,19.41
2017-09-23T14:59:59.609Z,19.40
2017-09-23T15:01:52.601Z,19.27
2017-09-23T15:02:52.688Z,19.29
2017-09-23T15:04:45.684Z,19.18
2017-09-23T15:05:45.729Z,19.22
2017-09-23T15:07:38.768Z,19.21
2017-09-23T15:08:38.799Z,19.15
2017-09-23T15:10:31.798Z,19.16
2017-09-23T15:11:31.861Z,19.14
2017-09-23T15:13:24.878Z,19.09
2017-09-23T15:14:24.936Z,19.11
2017-09-23T15:16:17.916Z,19.04
2017-09-23T15:17:17.983Z,18.99
2017-09-23T15:19:11.005Z,19.02
2017-09-23T15:20:11.050Z,19.02
2017-09-23T15:22:04.046Z,19.08
2017-09-23T15:23:04.113Z,19.00
2017-09-23T15:24:57.125Z,18.98
2017-09-23T15:25:57.170Z,18.93
2017-09-23T15:27:50.196Z,18.90
2017-09-23T15:28:50.239Z,18.84
2017-09-23T15:30:43.231Z,18.86
2017-09-23T15:31:43.297Z,18.83
2017-09-23T15:33:36.312Z,18.88
2017-09-23T15:34:36.366Z,18.86
2017-09-23T15:36:29.351Z,18.98
2017-09-23T15:37:29.419Z,18.99
2017-09-23T15:39:22.444Z,18.84
2017-09-23T15:40:22.476Z,18.96
2017-09-23T15:42:15.473Z,18.95
2017-09-23T15:43:15.540Z,18.95
2017-09-23T15:45:08.557Z,18.93
2017-09-23T15:46:08.601Z,18.99
2017-09-23T15:48:01.612Z,18.89
2017-09-23T15:49:01.658Z,18.90
2017-09-23T15:50:54.657Z,18.83
2017-09-23T15:51:54.769Z,18.88
2017-09-23T15:53:47.738Z,18.86
2017-09-23T15:54:47.786Z,18.78
2017-09-23T15:56:40.780Z,18.68
2017-09-23T15:57:40.850Z,18.74
2017-09-23T15:59:33.862Z,18.83
2017-09-23T16:00:33.906Z,18.68
2017-09-23T16:02:26.902Z,18.73
2017-09-23T16:03:26.967Z,18.70
2017-09-23T16:05:19.984Z,18.56
2017-09-23T16:06:20.027Z,18.59
2017-09-23T16:08:13.124Z,18.56
2017-09-23T16:09:13.087Z,18.56
2017-09-23T16:11:06.086Z,18.55
2017-09-23T16:12:06.154Z,18.49
2017-09-23T16:13:59.172Z,18.44
2017-09-23T16:14:59.211Z,18.41
2017-09-23T16:16:52.211Z,18.31
2017-09-23T16:17:52.273Z,18.33
2017-09-23T16:19:45.290Z,18.40
2017-09-23T16:20:45.334Z,18.35
2017-09-23T16:22:38.349Z,18.22
2017-09-23T16:23:38.401Z,18.26
2017-09-23T16:25:31.411Z,18.19
2017-09-23T16:26:31.458Z,18.16
2017-09-23T16:28:24.471Z,18.19
2017-09-23T16:29:24.516Z,18.08
2017-09-23T16:31:17.521Z,18.08
2017-09-23T16:32:17.582Z,18.13
2017-09-23T16:34:10.600Z,17.98
2017-09-23T16:35:10.639Z,18.16
2017-09-23T16:37:03.633Z,18.05
2017-09-23T16:38:03.700Z,17.97
2017-09-23T16:39:56.712Z,18.00
2017-09-23T16:40:56.756Z,17.89
2017-09-23T16:42:49.750Z,17.92
2017-09-23T16:43:49.815Z,17.89
2017-09-23T16:45:42.830Z,17.85
2017-09-23T16:46:42.873Z,17.86
2017-09-23T16:48:35.893Z,17.74
2017-09-23T16:49:35.932Z,17.74
2017-09-23T16:51:28.928Z,17.68
2017-09-23T16:52:28.990Z,17.60
2017-09-23T16:54:22.006Z,17.64
2017-09-23T16:55:22.047Z,17.68
2017-09-23T16:57:15.049Z,17.54
2017-09-23T16:58:15.116Z,17.51
2017-09-23T17:00:08.121Z,17.45
2017-09-23T17:01:08.168Z,17.42
2017-09-23T17:03:01.161Z,17.41
2017-09-23T17:04:01.226Z,17.27
2017-09-23T17:05:54.241Z,17.31
2017-09-23T17:06:54.283Z,17.23
2017-09-23T17:08:47.339Z,17.22
2017-09-23T17:09:47.346Z,17.19
2017-09-23T17:11:40.349Z,17.12
2017-09-23T17:12:40.412Z,17.14
2017-09-23T17:14:33.419Z,17.06
2017-09-23T17:15:33.464Z,17.04
2017-09-23T17:17:26.468Z,16.99
2017-09-23T17:18:26.521Z,16.89
2017-09-23T17:20:19.536Z,16.83
2017-09-23T17:21:19.577Z,16.83
2017-09-23T17:23:12.573Z,16.74
2017-09-23T17:24:12.634Z,16.74
2017-09-23T17:26:05.646Z,16.60
2017-09-23T17:27:05.690Z,16.60
2017-09-23T17:28:58.721Z,16.50
2017-09-23T17:29:58.749Z,16.43
2017-09-23T17:31:51.744Z,16.56
2017-09-23T17:32:51.810Z,16.50
2017-09-23T17:34:44.824Z,16.41
2017-09-23T17:35:44.867Z,16.28
2017-09-23T17:37:37.860Z,16.16
2017-09-23T17:38:37.926Z,16.21
2017-09-23T17:40:30.935Z,16.29
2017-09-23T17:41:30.980Z,16.29
2017-09-23T17:43:23.971Z,16.17
2017-09-23T17:44:24.034Z,16.17
2017-09-23T17:46:17.050Z,16.13
2017-09-23T17:47:17.090Z,16.15
2017-09-23T17:49:10.103Z,16.16
2017-09-23T17:50:10.145Z,16.08
2017-09-23T17:52:03.137Z,16.02
2017-09-23T17:53:03.202Z,16.01
2017-09-23T17:54:56.222Z,16.01
2017-09-23T17:55:56.293Z,16.09
2017-09-23T17:57:49.258Z,15.94
2017-09-23T17:58:49.322Z,16.01
2017-09-23T18:00:42.339Z,15.80
2017-09-23T18:01:42.379Z,15.86
2017-09-23T18:03:35.375Z,15.83
2017-09-23T18:04:35.441Z,15.73
2017-09-23T18:06:28.453Z,15.82
2017-09-23T18:07:28.498Z,15.75
2017-09-23T18:09:21.508Z,15.91
2017-09-23T18:10:21.553Z,15.79
2017-09-23T18:12:14.546Z,15.88
2017-09-23T18:13:14.614Z,15.90
2017-09-23T18:15:07.623Z,15.82
2017-09-23T18:16:07.669Z,15.68
2017-09-23T18:18:01.166Z,15.68
2017-09-23T18:19:01.225Z,15.59
2017-09-23T18:20:54.296Z,15.47
2017-09-23T18:21:54.289Z,15.44
2017-09-23T18:23:47.276Z,15.42
2017-09-23T18:24:47.339Z,15.42
2017-09-23T18:26:40.351Z,15.42
2017-09-23T18:27:40.392Z,15.40
2017-09-23T18:29:33.403Z,15.44
2017-09-23T18:30:33.449Z,15.44
2017-09-23T18:32:26.444Z,15.25
2017-09-23T18:33:26.536Z,15.19